createdAt,value
2018-07-31T00:00:28.461Z,1002.35
2018-07-31T00:01:28.441Z,1002.34
2018-07-31T00:02:28.413Z,1002.32
2018-07-31T00:03:28.464Z,1002.32
2018-07-31T00:04:28.370Z,1002.31
2018-07-31T00:05:28.355Z,1002.32
2018-07-31T00:06:28.338Z,1002.29
2018-07-31T00:07:28.302Z,1002.29
2018-07-31T00:08:28.288Z,1002.26
2018-07-31T00:09:28.258Z,1002.27
2018-07-31T00:10:28.278Z,1002.25
2018-07-31T00:11:28.210Z,1002.29
2018-07-31T00:12:28.189Z,1002.24
2018-07-31T00:13:28.170Z,1002.21
2018-07-31T00:14:28.144Z,1002.22
2018-07-31T00:15:28.125Z,1002.21
2018-07-31T00:16:28.100Z,1002.20
2018-07-31T00:17:28.114Z,1002.20
2018-07-31T00:18:28.053Z,1002.20
2018-07-31T00:19:28.038Z,1002.20
2018-07-31T00:20:28.015Z,1002.18
2018-07-31T00:21:27.990Z,1002.23
2018-07-31T00:22:27.967Z,1002.22
2018-07-31T00:23:27.939Z,1002.16
2018-07-31T00:24:27.918Z,1002.21
2018-07-31T00:25:27.901Z,1002.21
2018-07-31T00:26:27.878Z,1002.17
2018-07-31T00:27:27.850Z,1002.20
2018-07-31T00:28:27.826Z,1002.21
2018-07-31T00:29:27.836Z,1002.18
2018-07-31T00:30:27.782Z,1002.19
2018-07-31T00:31:27.763Z,1002.20
2018-07-31T00:32:27.735Z,1002.13
2018-07-31T00:33:27.717Z,1002.13
2018-07-31T00:34:27.698Z,1002.14
2018-07-31T00:35:27.668Z,1002.12
2018-07-31T00:36:27.650Z,1002.15
2018-07-31T00:37:27.625Z,1002.14
2018-07-31T00:38:27.607Z,1002.13
2018-07-31T00:39:27.578Z,1002.10
2018-07-31T00:40:27.562Z,1002.10
2018-07-31T00:41:27.531Z,1002.10
2018-07-31T00:42:27.512Z,1002.10
2018-07-31T00:43:27.494Z,1002.10
2018-07-31T00:44:27.465Z,1002.11
2018-07-31T00:45:27.450Z,1002.11
2018-07-31T00:46:27.416Z,1002.13
2018-07-31T00:47:27.402Z,1002.09
2018-07-31T00:48:27.372Z,1002.10
2018-07-31T00:49:27.358Z,1002.09
2018-07-31T00:50:27.330Z,1002.08
2018-07-31T00:51:27.311Z,1002.06
2018-07-31T00:52:27.287Z,1002.06
2018-07-31T00:53:27.262Z,1002.03
2018-07-31T00:54:27.239Z,1002.04
2018-07-31T00:55:27.230Z,1002.07
2018-07-31T00:56:27.194Z,1002.09
2018-07-31T00:57:27.176Z,1002.10
2018-07-31T00:58:27.148Z,1002.10
2018-07-31T00:59:27.132Z,1002.11
2018-07-31T01:00:27.105Z,1002.09
2018-07-31T01:01:27.078Z,1002.04
2018-07-31T01:02:27.057Z,1002.04
2018-07-31T01:03:27.036Z,1002.02
2018-07-31T01:04:27.016Z,1002.02
2018-07-31T01:05:26.990Z,1002.00
2018-07-31T01:06:26.971Z,1002.02
2018-07-31T01:07:26.947Z,1002.03
2018-07-31T01:08:26.926Z,1001.99
2018-07-31T01:09:26.897Z,1001.98
2018-07-31T01:10:26.878Z,1001.95
2018-07-31T01:11:26.849Z,1001.95
2018-07-31T01:12:26.834Z,1001.96
2018-07-31T01:13:26.812Z,1001.98
2018-07-31T01:14:26.787Z,1001.98
2018-07-31T01:15:26.761Z,1002.00
2018-07-31T01:16:26.739Z,1002.04
2018-07-31T01:17:26.717Z,1002.03
2018-07-31T01:18:26.701Z,1002.01
2018-07-31T01:19:26.666Z,1002.06
2018-07-31T01:20:26.653Z,1002.06
2018-07-31T01:21:26.619Z,1002.09
2018-07-31T01:22:26.605Z,1002.03
2018-07-31T01:23:26.584Z,1002.05
2018-07-31T01:24:26.556Z,1002.04
2018-07-31T01:25:26.539Z,1002.00
2018-07-31T01:26:26.516Z,1001.97
2018-07-31T01:27:26.485Z,1001.99
2018-07-31T01:28:26.462Z,1002.00
2018-07-31T01:29:26.446Z,1001.96
2018-07-31T01:30:26.424Z,1001.98
2018-07-31T01:31:26.395Z,1001.96
2018-07-31T01:32:26.380Z,1002.00
2018-07-31T01:33:26.348Z,1001.95
2018-07-31T01:34:26.329Z,1001.97
2018-07-31T01:35:26.302Z,1001.96
2018-07-31T01:36:26.288Z,1001.97
2018-07-31T01:37:26.257Z,1001.97
2018-07-31T01:38:26.243Z,1001.96
2018-07-31T01:39:26.213Z,1001.99
2018-07-31T01:40:26.198Z,1001.97
2018-07-31T01:41:26.167Z,1001.93
2018-07-31T01:42:26.139Z,1001.96
2018-07-31T01:43:26.122Z,1001.95
2018-07-31T01:44:26.092Z,1001.96
2018-07-31T01:45:26.087Z,1001.95
2018-07-31T01:46:26.052Z,1002.01
2018-07-31T01:47:26.037Z,1002.00
2018-07-31T01:48:26.008Z,1001.99
2018-07-31T01:49:25.988Z,1002.01
2018-07-31T01:50:25.960Z,1001.99
2018-07-31T01:51:25.939Z,1001.99
2018-07-31T01:52:25.918Z,1001.97
2018-07-31T01:53:25.894Z,1002.00
2018-07-31T01:54:25.871Z,1001.99
2018-07-31T01:55:25.845Z,1002.02
2018-07-31T01:56:25.819Z,1002.02
2018-07-31T01:57:25.800Z,1002.05
2018-07-31T01:58:25.777Z,1002.04
2018-07-31T01:59:25.751Z,1002.05
2018-07-31T02:00:25.737Z,1002.02
2018-07-31T02:01:25.703Z,1002.05
2018-07-31T02:02:25.689Z,1002.04
2018-07-31T02:03:25.656Z,1002.05
2018-07-31T02:04:25.645Z,1002.04
2018-07-31T02:05:25.626Z,1002.05
2018-07-31T02:06:25.596Z,1002.06
2018-07-31T02:07:25.567Z,1002.06
2018-07-31T02:08:25.541Z,1002.01
2018-07-31T02:09:25.527Z,1002.06
2018-07-31T02:10:25.498Z,1002.02
2018-07-31T02:11:25.472Z,1002.01
2018-07-31T02:12:25.452Z,1002.03
2018-07-31T02:13:25.432Z,1001.99
2018-07-31T02:14:25.426Z,1001.99
2018-07-31T02:15:25.392Z,1001.95
2018-07-31T02:16:25.358Z,1001.99
2018-07-31T02:17:25.373Z,1001.97
2018-07-31T02:18:25.317Z,1001.98
2018-07-31T02:19:25.294Z,1001.97
2018-07-31T02:20:25.268Z,1001.96
2018-07-31T02:21:25.257Z,1001.93
2018-07-31T02:22:25.226Z,1001.90
2018-07-31T02:23:25.193Z,1001.89
2018-07-31T02:24:25.178Z,1001.95
2018-07-31T02:25:25.154Z,1001.96
2018-07-31T02:26:25.127Z,1001.99
2018-07-31T02:27:25.103Z,1001.98
2018-07-31T02:28:25.150Z,1001.96
2018-07-31T02:29:25.063Z,1001.98
2018-07-31T02:30:25.034Z,1001.97
2018-07-31T02:31:25.016Z,1001.94
2018-07-31T02:32:24.988Z,1001.96
2018-07-31T02:33:24.966Z,1001.97
2018-07-31T02:34:24.948Z,1001.96
2018-07-31T02:35:24.918Z,1001.94
2018-07-31T02:36:24.903Z,1001.92
2018-07-31T02:37:24.871Z,1001.93
2018-07-31T02:38:24.853Z,1001.94
2018-07-31T02:39:24.824Z,1001.97
2018-07-31T02:40:24.804Z,1001.93
2018-07-31T02:41:24.778Z,1001.92
2018-07-31T02:42:24.761Z,1001.93
2018-07-31T02:43:24.739Z,1001.96
2018-07-31T02:44:24.709Z,1002.01
2018-07-31T02:45:24.695Z,1002.01
2018-07-31T02:46:24.671Z,1002.01
2018-07-31T02:47:24.641Z,1002.01
2018-07-31T02:48:24.623Z,1002.00
2018-07-31T02:49:24.595Z,1001.95
2018-07-31T02:50:24.568Z,1001.97
2018-07-31T02:51:24.554Z,1001.95
2018-07-31T02:52:24.527Z,1001.95
2018-07-31T02:53:24.499Z,1001.98
2018-07-31T02:54:24.476Z,1002.00
2018-07-31T02:55:24.455Z,1002.00
2018-07-31T02:56:24.436Z,1001.99
2018-07-31T02:57:24.411Z,1001.95
2018-07-31T02:58:24.383Z,1001.95
2018-07-31T02:59:24.357Z,1001.94
2018-07-31T03:00:24.340Z,1001.91
2018-07-31T03:01:24.323Z,1001.93
2018-07-31T03:02:24.291Z,1001.91
2018-07-31T03:03:24.270Z,1001.91
2018-07-31T03:04:24.242Z,1001.87
2018-07-31T03:05:24.222Z,1001.89
2018-07-31T03:06:24.204Z,1001.92
2018-07-31T03:07:24.171Z,1001.90
2018-07-31T03:08:24.151Z,1001.91
2018-07-31T03:09:24.131Z,1001.91
2018-07-31T03:10:24.114Z,1001.89
2018-07-31T03:11:24.078Z,1001.92
2018-07-31T03:12:24.054Z,1001.96
2018-07-31T03:13:24.039Z,1001.95
2018-07-31T03:14:24.011Z,1001.94
2018-07-31T03:15:23.987Z,1001.96
2018-07-31T03:16:23.965Z,1001.95
2018-07-31T03:17:23.945Z,1001.94
2018-07-31T03:18:23.915Z,1002.00
2018-07-31T03:19:23.901Z,1001.99
2018-07-31T03:20:23.870Z,1001.99
2018-07-31T03:21:23.853Z,1002.01
2018-07-31T03:22:23.832Z,1002.03
2018-07-31T03:23:23.798Z,1002.07
2018-07-31T03:24:23.777Z,1002.10
2018-07-31T03:25:23.756Z,1002.09
2018-07-31T03:26:23.734Z,1002.12
2018-07-31T03:27:23.706Z,1002.11
2018-07-31T03:28:23.688Z,1002.12
2018-07-31T03:29:23.661Z,1002.13
2018-07-31T03:30:23.639Z,1002.14
2018-07-31T03:31:23.620Z,1002.15
2018-07-31T03:32:23.590Z,1002.12
2018-07-31T03:33:23.568Z,1002.10
2018-07-31T03:34:23.542Z,1002.15
2018-07-31T03:35:23.526Z,1002.15
2018-07-31T03:36:23.500Z,1002.14
2018-07-31T03:37:23.468Z,1002.13
2018-07-31T03:38:23.453Z,1002.11
2018-07-31T03:39:23.431Z,1002.13
2018-07-31T03:40:23.400Z,1002.10
2018-07-31T03:41:23.383Z,1002.14
2018-07-31T03:42:23.355Z,1002.12
2018-07-31T03:43:23.336Z,1002.12
2018-07-31T03:44:23.304Z,1002.07
2018-07-31T03:45:23.289Z,1002.06
2018-07-31T03:46:23.266Z,1002.06
2018-07-31T03:47:23.232Z,1002.08
2018-07-31T03:48:23.213Z,1002.07
2018-07-31T03:49:23.188Z,1002.08
2018-07-31T03:50:23.167Z,1002.09
2018-07-31T03:51:23.152Z,1002.10
2018-07-31T03:52:23.115Z,1002.10
2018-07-31T03:53:23.099Z,1002.12
2018-07-31T03:54:23.075Z,1002.14
2018-07-31T03:55:23.057Z,1002.12
2018-07-31T03:56:23.074Z,1002.10
2018-07-31T03:57:23.010Z,1002.10
2018-07-31T03:58:22.982Z,1002.09
2018-07-31T03:59:22.952Z,1002.07
2018-07-31T04:00:22.936Z,1002.07
2018-07-31T04:01:22.905Z,1002.07
2018-07-31T04:02:22.886Z,1002.08
2018-07-31T04:03:22.859Z,1002.08
2018-07-31T04:04:22.832Z,1002.08
2018-07-31T04:05:22.856Z,1002.08
2018-07-31T04:06:22.788Z,1002.12
2018-07-31T04:07:22.767Z,1002.15
2018-07-31T04:08:22.744Z,1002.16
2018-07-31T04:09:22.725Z,1002.12
2018-07-31T04:10:22.694Z,1002.10
2018-07-31T04:11:22.677Z,1002.08
2018-07-31T04:12:22.655Z,1002.10
2018-07-31T04:13:22.638Z,1002.12
2018-07-31T04:14:22.603Z,1002.09
2018-07-31T04:15:22.576Z,1002.10
2018-07-31T04:16:22.552Z,1002.09
2018-07-31T04:17:22.536Z,1002.10
2018-07-31T04:18:22.514Z,1002.09
2018-07-31T04:19:22.480Z,1002.09
2018-07-31T04:20:22.467Z,1002.09
2018-07-31T04:21:22.441Z,1002.11
2018-07-31T04:22:22.423Z,1002.14
2018-07-31T04:23:22.388Z,1002.14
2018-07-31T04:24:22.367Z,1002.14
2018-07-31T04:25:22.343Z,1002.18
2018-07-31T04:26:22.324Z,1002.16
2018-07-31T04:27:22.293Z,1002.20
2018-07-31T04:28:22.277Z,1002.19
2018-07-31T04:29:22.246Z,1002.22
2018-07-31T04:30:22.233Z,1002.24
2018-07-31T04:31:22.198Z,1002.25
2018-07-31T04:32:22.184Z,1002.24
2018-07-31T04:33:22.156Z,1002.23
2018-07-31T04:34:22.135Z,1002.24
2018-07-31T04:35:22.118Z,1002.22
2018-07-31T04:36:22.081Z,1002.26
2018-07-31T04:37:22.066Z,1002.27
2018-07-31T04:38:22.037Z,1002.21
2018-07-31T04:39:22.019Z,1002.18
2018-07-31T04:40:21.993Z,1002.20
2018-07-31T04:41:22.021Z,1002.19
2018-07-31T04:42:22.036Z,1002.18
2018-07-31T04:43:21.923Z,1002.19
2018-07-31T04:44:21.898Z,1002.18
2018-07-31T04:45:21.875Z,1002.15
2018-07-31T04:46:21.845Z,1002.18
2018-07-31T04:47:21.830Z,1002.17
2018-07-31T04:48:21.800Z,1002.17
2018-07-31T04:49:21.786Z,1002.15
2018-07-31T04:50:21.779Z,1002.18
2018-07-31T04:51:21.739Z,1002.17
2018-07-31T04:52:21.717Z,1002.24
2018-07-31T04:53:21.693Z,1002.23
2018-07-31T04:54:21.664Z,1002.20
2018-07-31T04:55:21.638Z,1002.24
2018-07-31T04:56:21.615Z,1002.23
2018-07-31T04:57:21.590Z,1002.25
2018-07-31T04:58:21.566Z,1002.22
2018-07-31T04:59:21.550Z,1002.26
2018-07-31T05:00:21.520Z,1002.22
2018-07-31T05:01:21.507Z,1002.20
2018-07-31T05:02:21.480Z,1002.21
2018-07-31T05:03:21.448Z,1002.21
2018-07-31T05:04:21.462Z,1002.18
2018-07-31T05:05:21.400Z,1002.16
2018-07-31T05:06:21.380Z,1002.19
2018-07-31T05:07:21.365Z,1002.13
2018-07-31T05:08:21.330Z,1002.11
2018-07-31T05:09:21.307Z,1002.17
2018-07-31T05:10:21.291Z,1002.16
2018-07-31T05:11:21.258Z,1002.13
2018-07-31T05:12:21.238Z,1002.12
2018-07-31T05:13:21.217Z,1002.14
2018-07-31T05:14:21.191Z,1002.16
2018-07-31T05:15:21.181Z,1002.13
2018-07-31T05:16:21.149Z,1002.16
2018-07-31T05:17:21.119Z,1002.14
2018-07-31T05:18:21.229Z,1002.12
2018-07-31T05:19:21.080Z,1002.16
2018-07-31T05:20:21.052Z,1002.14
2018-07-31T05:21:21.032Z,1002.20
2018-07-31T05:22:21.009Z,1002.20
2018-07-31T05:23:20.983Z,1002.20
2018-07-31T05:24:20.956Z,1002.23
2018-07-31T05:25:20.943Z,1002.24
2018-07-31T05:26:20.914Z,1002.24
2018-07-31T05:27:20.885Z,1002.20
2018-07-31T05:28:20.863Z,1002.23
2018-07-31T05:29:20.840Z,1002.24
2018-07-31T05:30:20.815Z,1002.26
2018-07-31T05:31:20.795Z,1002.25
2018-07-31T05:32:20.776Z,1002.27
2018-07-31T05:33:20.743Z,1002.28
2018-07-31T05:34:20.722Z,1002.27
2018-07-31T05:35:20.709Z,1002.34
2018-07-31T05:36:20.680Z,1002.32
2018-07-31T05:37:20.652Z,1002.37
2018-07-31T05:38:20.627Z,1002.34
2018-07-31T05:39:20.602Z,1002.33
2018-07-31T05:40:20.590Z,1002.36
2018-07-31T05:41:20.556Z,1002.35
2018-07-31T05:42:20.535Z,1002.35
2018-07-31T05:43:20.517Z,1002.31
2018-07-31T05:44:20.491Z,1002.37
2018-07-31T05:45:20.470Z,1002.35
2018-07-31T05:46:20.444Z,1002.37
2018-07-31T05:47:20.416Z,1002.39
2018-07-31T05:48:20.390Z,1002.38
2018-07-31T05:49:20.392Z,1002.36
2018-07-31T05:50:20.358Z,1002.38
2018-07-31T05:51:20.322Z,1002.39
2018-07-31T05:52:20.334Z,1002.39
2018-07-31T05:53:20.280Z,1002.40
2018-07-31T05:54:20.252Z,1002.41
2018-07-31T05:55:20.232Z,1002.40
2018-07-31T05:56:20.214Z,1002.41
2018-07-31T05:57:20.199Z,1002.43
2018-07-31T05:58:20.161Z,1002.40
2018-07-31T05:59:20.141Z,1002.40
2018-07-31T06:00:20.115Z,1002.42
2018-07-31T06:01:20.089Z,1002.43
2018-07-31T06:02:20.074Z,1002.46
2018-07-31T06:03:20.042Z,1002.48
2018-07-31T06:04:20.028Z,1002.55
2018-07-31T06:05:20.001Z,1002.50
2018-07-31T06:06:19.977Z,1002.52
2018-07-31T06:07:19.950Z,1002.55
2018-07-31T06:08:19.937Z,1002.56
2018-07-31T06:09:19.908Z,1002.55
2018-07-31T06:10:19.883Z,1002.56
2018-07-31T06:11:19.861Z,1002.57
2018-07-31T06:12:19.834Z,1002.52
2018-07-31T06:13:19.810Z,1002.59
2018-07-31T06:14:19.788Z,1002.55
2018-07-31T06:15:19.867Z,1002.61
2018-07-31T06:16:19.744Z,1002.62
2018-07-31T06:17:19.721Z,1002.60
2018-07-31T06:18:19.698Z,1002.66
2018-07-31T06:19:19.671Z,1002.65
2018-07-31T06:20:19.654Z,1002.69
2018-07-31T06:21:19.625Z,1002.67
2018-07-31T06:22:19.611Z,1002.71
2018-07-31T06:23:19.578Z,1002.75
2018-07-31T06:24:19.564Z,1002.75
2018-07-31T06:25:19.533Z,1002.73
2018-07-31T06:26:19.509Z,1002.73
2018-07-31T06:27:19.493Z,1002.76
2018-07-31T06:28:19.467Z,1002.76
2018-07-31T06:29:19.442Z,1002.78
2018-07-31T06:30:19.418Z,1002.78
2018-07-31T06:31:19.396Z,1002.73
2018-07-31T06:32:19.396Z,1002.75
2018-07-31T06:33:19.353Z,1002.75
2018-07-31T06:34:19.326Z,1002.73
2018-07-31T06:35:19.312Z,1002.71
2018-07-31T06:36:19.326Z,1002.74
2018-07-31T06:37:19.254Z,1002.70
2018-07-31T06:38:19.231Z,1002.74
2018-07-31T06:39:19.216Z,1002.74
2018-07-31T06:40:19.201Z,1002.74
2018-07-31T06:41:19.163Z,1002.72
2018-07-31T06:42:19.157Z,1002.71
2018-07-31T06:43:19.117Z,1002.70
2018-07-31T06:44:19.111Z,1002.74
2018-07-31T06:45:19.078Z,1002.75
2018-07-31T06:46:19.051Z,1002.73
2018-07-31T06:47:19.035Z,1002.75
2018-07-31T06:48:19.003Z,1002.78
2018-07-31T06:49:19.002Z,1002.78
2018-07-31T06:50:18.963Z,1002.76
2018-07-31T06:51:18.936Z,1002.79
2018-07-31T06:52:18.948Z,1002.81
2018-07-31T06:53:18.928Z,1002.82
2018-07-31T06:54:18.917Z,1002.81
2018-07-31T06:55:18.865Z,1002.81
2018-07-31T06:56:18.821Z,1002.79
2018-07-31T06:57:18.809Z,1002.83
2018-07-31T06:58:18.777Z,1002.82
2018-07-31T06:59:18.772Z,1002.86
2018-07-31T07:00:18.738Z,1002.87
2018-07-31T07:01:18.715Z,1002.89
2018-07-31T07:02:18.689Z,1002.90
2018-07-31T07:03:18.673Z,1002.90
2018-07-31T07:04:18.644Z,1002.87
2018-07-31T07:05:18.621Z,1002.91
2018-07-31T07:06:18.603Z,1002.91
2018-07-31T07:07:18.568Z,1002.95
2018-07-31T07:08:18.554Z,1002.95
2018-07-31T07:09:18.572Z,1002.93
2018-07-31T07:10:18.509Z,1002.91
2018-07-31T07:11:18.486Z,1002.90
2018-07-31T07:12:18.460Z,1002.91
2018-07-31T07:13:18.437Z,1002.90
2018-07-31T07:14:18.418Z,1002.90
2018-07-31T07:15:18.392Z,1002.93
2018-07-31T07:16:18.368Z,1002.90
2018-07-31T07:17:18.345Z,1002.89
2018-07-31T07:18:18.340Z,1002.88
2018-07-31T07:19:18.309Z,1002.89
2018-07-31T07:20:18.280Z,1002.87
2018-07-31T07:21:18.255Z,1002.86
2018-07-31T07:22:18.236Z,1002.87
2018-07-31T07:23:18.210Z,1002.82
2018-07-31T07:24:18.191Z,1002.85
2018-07-31T07:25:18.165Z,1002.85
2018-07-31T07:26:18.151Z,1002.83
2018-07-31T07:27:18.115Z,1002.87
2018-07-31T07:28:18.136Z,1002.85
2018-07-31T07:29:18.074Z,1002.88
2018-07-31T07:30:18.056Z,1002.91
2018-07-31T07:31:18.035Z,1002.91
2018-07-31T07:32:18.012Z,1002.94
2018-07-31T07:33:17.984Z,1002.96
2018-07-31T07:34:17.970Z,1002.96
2018-07-31T07:35:17.936Z,1002.96
2018-07-31T07:36:17.925Z,1002.94
2018-07-31T07:37:17.893Z,1002.94
2018-07-31T07:38:17.873Z,1002.93
2018-07-31T07:39:17.863Z,1002.94
2018-07-31T07:40:17.855Z,1002.96
2018-07-31T07:41:17.827Z,1002.92
2018-07-31T07:42:17.789Z,1002.96
2018-07-31T07:43:17.799Z,1002.93
2018-07-31T07:44:17.739Z,1002.94
2018-07-31T07:45:17.714Z,1002.93
2018-07-31T07:46:17.699Z,1002.93
2018-07-31T07:47:17.673Z,1002.92
2018-07-31T07:48:17.648Z,1002.94
2018-07-31T07:49:17.628Z,1002.93
2018-07-31T07:50:17.605Z,1002.95
2018-07-31T07:51:17.580Z,1002.93
2018-07-31T07:52:17.556Z,1002.91
2018-07-31T07:53:17.539Z,1002.87
2018-07-31T07:54:17.553Z,1002.85
2018-07-31T07:55:17.496Z,1002.82
2018-07-31T07:56:17.481Z,1002.82
2018-07-31T07:57:17.445Z,1002.79
2018-07-31T07:58:17.433Z,1002.83
2018-07-31T07:59:17.423Z,1002.76
2018-07-31T08:00:17.386Z,1002.76
2018-07-31T08:01:17.361Z,1002.76
2018-07-31T08:02:17.339Z,1002.73
2018-07-31T08:03:17.314Z,1002.66
2018-07-31T08:04:17.302Z,1002.64
2018-07-31T08:05:17.271Z,1002.59
2018-07-31T08:06:17.255Z,1002.61
2018-07-31T08:07:17.245Z,1002.62
2018-07-31T08:08:17.205Z,1002.67
2018-07-31T08:09:17.173Z,1002.69
2018-07-31T08:10:17.160Z,1002.70
2018-07-31T08:11:17.133Z,1002.71
2018-07-31T08:12:17.117Z,1002.70
2018-07-31T08:13:17.087Z,1002.67
2018-07-31T08:14:17.070Z,1002.69
2018-07-31T08:15:17.044Z,1002.64
2018-07-31T08:16:17.024Z,1002.64
2018-07-31T08:17:17.003Z,1002.67
2018-07-31T08:18:16.977Z,1002.67
2018-07-31T08:19:16.963Z,1002.69
2018-07-31T08:20:16.983Z,1002.69
2018-07-31T08:21:16.912Z,1002.66
2018-07-31T08:22:16.888Z,1002.73
2018-07-31T08:23:16.877Z,1002.73
2018-07-31T08:24:16.840Z,1002.77
2018-07-31T08:25:16.827Z,1002.80
2018-07-31T08:26:16.802Z,1002.82
2018-07-31T08:27:16.785Z,1002.82
2018-07-31T08:28:16.753Z,1002.81
2018-07-31T08:29:16.743Z,1002.79
2018-07-31T08:30:16.715Z,1002.79
2018-07-31T08:31:16.691Z,1002.82
2018-07-31T08:32:16.666Z,1002.83
2018-07-31T08:33:16.648Z,1002.83
2018-07-31T08:34:16.623Z,1002.81
2018-07-31T08:35:16.600Z,1002.91
2018-07-31T08:36:16.581Z,1002.91
2018-07-31T08:37:16.563Z,1002.89
2018-07-31T08:38:16.534Z,1002.89
2018-07-31T08:39:16.517Z,1002.89
2018-07-31T08:40:16.492Z,1002.84
2018-07-31T08:41:16.519Z,1002.96
2018-07-31T08:42:16.448Z,1002.91
2018-07-31T08:43:16.450Z,1002.90
2018-07-31T08:44:16.404Z,1002.85
2018-07-31T08:45:16.384Z,1002.88
2018-07-31T08:46:16.363Z,1002.89
2018-07-31T08:47:16.335Z,1002.87
2018-07-31T08:48:16.318Z,1002.87
2018-07-31T08:49:16.292Z,1002.87
2018-07-31T08:50:16.272Z,1002.86
2018-07-31T08:51:16.305Z,1002.88
2018-07-31T08:52:16.228Z,1002.86
2018-07-31T08:53:16.209Z,1002.88
2018-07-31T08:54:16.184Z,1002.86
2018-07-31T08:55:16.167Z,1002.86
2018-07-31T08:56:16.135Z,1002.90
2018-07-31T08:57:16.123Z,1002.94
2018-07-31T08:58:16.094Z,1002.93
2018-07-31T08:59:16.088Z,1002.95
2018-07-31T09:00:16.053Z,1002.94
2018-07-31T09:01:16.029Z,1002.93
2018-07-31T09:02:16.019Z,1002.95
2018-07-31T09:03:15.988Z,1002.94
2018-07-31T09:04:15.963Z,1003.02
2018-07-31T09:05:15.946Z,1003.03
2018-07-31T09:06:15.916Z,1003.06
2018-07-31T09:07:15.901Z,1003.01
2018-07-31T09:08:15.953Z,1002.99
2018-07-31T09:09:15.858Z,1003.05
2018-07-31T09:10:15.832Z,1003.04
2018-07-31T09:11:15.812Z,1003.09
2018-07-31T09:12:15.792Z,1003.04
2018-07-31T09:13:15.769Z,1003.05
2018-07-31T09:14:15.749Z,1003.20
2018-07-31T09:15:15.723Z,1003.19
2018-07-31T09:16:15.708Z,1003.15
2018-07-31T09:17:15.678Z,1003.15
2018-07-31T09:18:15.661Z,1003.14
2018-07-31T09:19:15.636Z,1003.16
2018-07-31T09:20:15.617Z,1003.16
2018-07-31T09:21:15.592Z,1003.15
2018-07-31T09:22:15.578Z,1003.12
2018-07-31T09:23:15.549Z,1003.09
2018-07-31T09:24:15.532Z,1003.11
2018-07-31T09:25:15.505Z,1003.13
2018-07-31T09:26:15.481Z,1003.13
2018-07-31T09:27:15.464Z,1003.18
2018-07-31T09:28:15.440Z,1003.22
2018-07-31T09:29:15.419Z,1003.22
2018-07-31T09:30:15.395Z,1003.21
2018-07-31T09:31:15.379Z,1003.20
2018-07-31T09:32:15.348Z,1003.16
2018-07-31T09:33:15.336Z,1003.19
2018-07-31T09:34:15.307Z,1003.18
2018-07-31T09:35:15.290Z,1003.17
2018-07-31T09:36:15.265Z,1003.19
2018-07-31T09:37:15.247Z,1003.18
2018-07-31T09:38:15.217Z,1003.09
2018-07-31T09:39:15.207Z,1003.14
2018-07-31T09:40:15.181Z,1003.15
2018-07-31T09:41:15.164Z,1003.15
2018-07-31T09:42:15.136Z,1003.10
2018-07-31T09:43:15.118Z,1003.10
2018-07-31T09:44:15.097Z,1003.09
2018-07-31T09:45:15.082Z,1003.08
2018-07-31T09:46:15.052Z,1003.09
2018-07-31T09:47:15.035Z,1003.10
2018-07-31T09:48:15.010Z,1003.09
2018-07-31T09:49:14.994Z,1003.06
2018-07-31T09:50:14.964Z,1003.09
2018-07-31T09:51:14.952Z,1003.13
2018-07-31T09:52:14.921Z,1003.19
2018-07-31T09:53:14.911Z,1003.16
2018-07-31T09:54:14.882Z,1003.18
2018-07-31T09:55:14.862Z,1003.15
2018-07-31T09:56:14.839Z,1003.20
2018-07-31T09:57:14.863Z,1003.24
2018-07-31T09:58:14.793Z,1003.23
2018-07-31T09:59:14.841Z,1003.30
2018-07-31T10:00:14.752Z,1003.27
2018-07-31T10:01:14.740Z,1003.25
2018-07-31T10:02:14.710Z,1003.33
2018-07-31T10:03:14.696Z,1003.25
2018-07-31T10:04:14.672Z,1003.32
2018-07-31T10:05:14.683Z,1003.31
2018-07-31T10:06:14.633Z,1003.33
2018-07-31T10:07:14.610Z,1003.34
2018-07-31T10:08:14.610Z,1003.34
2018-07-31T10:09:14.571Z,1003.32
2018-07-31T10:10:14.543Z,1003.29
2018-07-31T10:11:14.527Z,1003.20
2018-07-31T10:12:14.602Z,1003.21
2018-07-31T10:13:14.488Z,1003.31
2018-07-31T10:14:14.464Z,1003.38
2018-07-31T10:15:14.443Z,1003.44
2018-07-31T10:16:14.429Z,1003.46
2018-07-31T10:17:14.399Z,1003.46
2018-07-31T10:18:14.473Z,1003.51
2018-07-31T10:19:15.160Z,1003.56
2018-07-31T10:20:14.757Z,1003.55
2018-07-31T10:21:14.803Z,1003.49
2018-07-31T10:22:14.292Z,1003.51
2018-07-31T10:23:14.280Z,1003.43
2018-07-31T10:24:14.298Z,1003.48
2018-07-31T10:25:14.231Z,1003.53
2018-07-31T10:26:14.209Z,1003.46
2018-07-31T10:27:14.269Z,1003.42
2018-07-31T10:28:14.169Z,1003.42
2018-07-31T10:29:14.150Z,1003.39
2018-07-31T10:30:14.123Z,1003.44
2018-07-31T10:31:14.109Z,1003.47
2018-07-31T10:32:14.089Z,1003.50
2018-07-31T10:33:14.069Z,1003.47
2018-07-31T10:34:14.044Z,1003.51
2018-07-31T10:35:14.028Z,1003.54
2018-07-31T10:36:14.048Z,1003.47
2018-07-31T10:37:13.979Z,1003.51
2018-07-31T10:38:13.955Z,1003.56
2018-07-31T10:39:13.937Z,1003.61
2018-07-31T10:40:13.921Z,1003.55
2018-07-31T10:41:13.895Z,1003.55
2018-07-31T10:42:13.870Z,1003.57
2018-07-31T10:43:13.857Z,1003.65
2018-07-31T10:44:13.826Z,1003.55
2018-07-31T10:45:13.815Z,1003.53
2018-07-31T10:46:13.785Z,1003.71
2018-07-31T10:47:13.767Z,1003.56
2018-07-31T10:48:13.743Z,1003.62
2018-07-31T10:49:13.728Z,1003.57
2018-07-31T10:50:13.708Z,1003.60
2018-07-31T10:51:13.784Z,1003.53
2018-07-31T10:52:13.667Z,1003.55
2018-07-31T10:53:13.637Z,1003.57
2018-07-31T10:54:13.616Z,1003.57
2018-07-31T10:55:13.599Z,1003.60
2018-07-31T10:56:13.574Z,1003.58
2018-07-31T10:57:13.552Z,1003.69
2018-07-31T10:58:13.550Z,1003.50
2018-07-31T10:59:13.548Z,1003.67
2018-07-31T11:00:13.502Z,1003.64
2018-07-31T11:01:13.490Z,1003.61
2018-07-31T11:02:13.446Z,1003.66
2018-07-31T11:03:13.468Z,1003.55
2018-07-31T11:04:13.408Z,1003.61
2018-07-31T11:05:13.388Z,1003.66
2018-07-31T11:06:13.389Z,1003.64
2018-07-31T11:07:13.339Z,1003.57
2018-07-31T11:08:13.316Z,1003.54
2018-07-31T11:09:13.305Z,1003.59
2018-07-31T11:10:13.282Z,1003.60
2018-07-31T11:11:13.255Z,1003.51
2018-07-31T11:12:13.234Z,1003.60
2018-07-31T11:13:13.248Z,1003.62
2018-07-31T11:14:13.194Z,1003.55
2018-07-31T11:15:13.172Z,1003.59
2018-07-31T11:16:13.151Z,1003.57
2018-07-31T11:17:13.133Z,1003.62
2018-07-31T11:18:13.115Z,1003.58
2018-07-31T11:19:13.090Z,1003.60
2018-07-31T11:20:13.073Z,1003.63
2018-07-31T11:21:13.055Z,1003.60
2018-07-31T11:22:13.048Z,1003.59
2018-07-31T11:23:12.997Z,1003.59
2018-07-31T11:24:12.984Z,1003.56
2018-07-31T11:25:12.967Z,1003.60
2018-07-31T11:26:12.942Z,1003.57
2018-07-31T11:27:12.917Z,1003.65
2018-07-31T11:28:12.940Z,1003.55
2018-07-31T11:29:12.880Z,1003.58
2018-07-31T11:30:12.851Z,1003.60
2018-07-31T11:31:12.833Z,1003.50
2018-07-31T11:32:12.822Z,1003.52
2018-07-31T11:33:12.793Z,1003.51
2018-07-31T11:34:12.765Z,1003.84
2018-07-31T11:35:12.755Z,1003.69
2018-07-31T11:36:12.728Z,1003.65
2018-07-31T11:37:12.706Z,1003.59
2018-07-31T11:38:12.683Z,1003.66
2018-07-31T11:39:12.709Z,1003.57
2018-07-31T11:40:12.643Z,1003.56
2018-07-31T11:41:12.623Z,1003.59
2018-07-31T11:42:12.699Z,1003.54
2018-07-31T11:43:12.580Z,1003.63
2018-07-31T11:44:12.556Z,1003.60
2018-07-31T11:45:12.614Z,1003.61
2018-07-31T11:46:12.513Z,1003.58
2018-07-31T11:47:12.499Z,1003.64
2018-07-31T11:48:12.518Z,1003.67
2018-07-31T11:49:12.455Z,1003.62
2018-07-31T11:50:12.481Z,1003.65
2018-07-31T11:51:12.406Z,1003.64
2018-07-31T11:52:12.394Z,1003.65
2018-07-31T11:53:12.376Z,1003.70
2018-07-31T11:54:12.344Z,1003.83
2018-07-31T11:55:12.327Z,1003.70
2018-07-31T11:56:12.306Z,1003.73
2018-07-31T11:57:12.314Z,1003.78
2018-07-31T11:58:12.261Z,1003.78
2018-07-31T11:59:12.268Z,1003.69
2018-07-31T12:00:12.219Z,1003.67
2018-07-31T12:01:12.197Z,1003.69
2018-07-31T12:02:12.180Z,1003.73
2018-07-31T12:03:12.151Z,1003.73
2018-07-31T12:04:12.300Z,1003.70
2018-07-31T12:05:12.115Z,1003.69